This is the latest recevied weather packets stored in our database for station/object VE3MNX. If no packets are shown the sender has not sent any weather packets the latest 10 day(s).
| Time | Temp. | Humidity | Pressure | Rain* | Wind** | Luminosity | Snow |
|---|---|---|---|---|---|---|---|
| 1777833496 | 12.78° C | 77% | 1010.5 hPa | 0 mm | - | - | - |
| 1777832593 | 12.78° C | 78% | 1010.8 hPa | 0 mm | - | - | - |
| 1777831694 | 11.67° C | 80% | 1011.2 hPa | 0 mm | - | - | - |
| 1777830794 | 11.11° C | 79% | 1011.2 hPa | 0 mm | - | - | - |
| 1777829893 | 11.67° C | 78% | 1011.2 hPa | 0 mm | - | - | - |
| 1777828996 | 11.11° C | 79% | 1011.5 hPa | 0 mm | - | - | - |
| 1777828094 | 12.78° C | 74% | 1011.5 hPa | 0 mm | - | - | - |
| 1777827193 | 12.22° C | 76% | 1011.5 hPa | 0 mm | - | - | - |
| 1777826294 | 12.22° C | 78% | 1011.9 hPa | 0 mm | - | - | - |
| 1777825394 | 11.67° C | 79% | 1011.9 hPa | 0 mm | - | - | - |
| 1777824494 | 11.67° C | 78% | 1012.2 hPa | 0 mm | - | - | - |
| 1777823594 | 11.11° C | 78% | 1012.2 hPa | 0 mm | - | - | - |
| 1777822693 | 11.11° C | 78% | 1012.2 hPa | 0 mm | - | - | - |
| 1777821794 | 11.11° C | 78% | 1012.2 hPa | 0 mm | - | - | - |
| 1777820894 | 11.11° C | 75% | 1012.2 hPa | 0 mm | - | - | - |
| 1777819994 | 10.56° C | 77% | 1012.5 hPa | 0 mm | - | - | - |
| 1777819094 | 10.56° C | 73% | 1012.5 hPa | 0 mm | - | - | - |
| 1777818195 | 10° C | 75% | 1012.9 hPa | 0 mm | - | - | - |
| 1777817294 | 10° C | 78% | 1012.8 hPa | 0 mm | - | - | - |
| 1777816393 | 9.44° C | 78% | 1013 hPa | 0 mm | - | - | - |
| 1777815494 | 10° C | 76% | 1012.9 hPa | 0 mm | - | - | - |
| 1777814594 | 10° C | 74% | 1012.9 hPa | 0 mm | - | - | - |
| 1777813694 | 9.44° C | 79% | 1013.2 hPa | 0 mm | - | - | - |
| 1777812793 | 9.44° C | 79% | 1013.2 hPa | 0 mm | - | - | - |
| 1777811893 | 9.44° C | 77% | 1013.2 hPa | 0 mm | - | - | - |
* Rain latest hour (hover to see other rain measurements)
** Current wind speed in m/s (hover to see current wind gust speed)